createdAt,value
2023-01-20T00:02:16.673Z,2.00
2023-01-20T00:04:43.401Z,2.25
2023-01-20T00:07:10.202Z,1.25
2023-01-20T00:09:37.080Z,6.00
2023-01-20T00:12:04.703Z,2.00
2023-01-20T00:14:32.738Z,3.00
2023-01-20T00:16:59.367Z,3.00
2023-01-20T00:19:26.263Z,1.75
2023-01-20T00:21:53.158Z,1.25
2023-01-20T00:24:19.882Z,2.75
2023-01-20T00:26:46.600Z,1.00
2023-01-20T00:29:13.326Z,2.75
2023-01-20T00:31:41.588Z,2.25
2023-01-20T00:34:10.082Z,1.75
2023-01-20T00:36:36.977Z,3.00
2023-01-20T00:39:04.845Z,3.50
2023-01-20T00:41:31.693Z,5.00
2023-01-20T00:43:58.511Z,5.75
2023-01-20T00:46:25.116Z,2.75
2023-01-20T00:48:53.296Z,5.25
2023-01-20T00:51:20.225Z,1.00
2023-01-20T00:53:46.913Z,2.75
2023-01-20T00:56:13.623Z,3.00
2023-01-20T00:58:42.688Z,3.00
2023-01-20T01:01:09.430Z,5.50
2023-01-20T01:03:36.253Z,3.00
2023-01-20T01:06:09.809Z,2.00
2023-01-20T01:08:36.883Z,3.50
2023-01-20T01:11:04.740Z,3.00
2023-01-20T01:13:31.717Z,1.50
2023-01-20T01:15:58.791Z,1.00
2023-01-20T01:18:25.612Z,1.00
2023-01-20T01:20:52.293Z,2.75
2023-01-20T01:23:20.484Z,2.00
2023-01-20T01:25:47.157Z,2.50
2023-01-20T01:28:13.858Z,2.00
2023-01-20T01:30:40.591Z,2.00
2023-01-20T01:33:07.249Z,3.00
2023-01-20T01:35:33.958Z,2.00
2023-01-20T01:38:00.624Z,2.00
2023-01-20T01:40:28.663Z,3.00
2023-01-20T01:42:55.340Z,3.00
2023-01-20T01:45:25.735Z,2.25
2023-01-20T01:47:59.341Z,2.50
2023-01-20T01:50:31.073Z,2.25
2023-01-20T01:52:57.898Z,1.00
2023-01-20T01:55:30.871Z,2.00
2023-01-20T01:57:59.604Z,1.00
2023-01-20T02:00:26.842Z,2.00
2023-01-20T02:02:55.217Z,2.00
2023-01-20T02:05:24.155Z,1.25
2023-01-20T02:07:52.163Z,2.00
2023-01-20T02:10:19.009Z,11.75
2023-01-20T02:12:49.486Z,4.00
2023-01-20T02:15:17.016Z,7.75
2023-01-20T02:17:57.631Z,2.00
2023-01-20T02:20:43.568Z,10.00
2023-01-20T02:23:26.235Z,1.00
2023-01-20T02:26:14.214Z,2.75
2023-01-20T02:29:11.875Z,1.00
2023-01-20T02:32:12.599Z,3.75
2023-01-20T02:34:45.975Z,3.00
2023-01-20T02:37:16.550Z,5.00
2023-01-20T02:39:54.980Z,2.00
2023-01-20T02:42:25.575Z,2.00
2023-01-20T02:44:57.670Z,1.00
2023-01-20T02:47:32.200Z,1.75
2023-01-20T02:50:05.865Z,1.50
2023-01-20T02:52:36.304Z,2.00
2023-01-20T02:55:08.284Z,2.00
2023-01-20T02:57:41.951Z,1.25
2023-01-20T03:00:15.738Z,5.75
2023-01-20T03:02:48.109Z,5.00
2023-01-20T03:05:20.277Z,3.00
2023-01-20T03:07:50.499Z,1.50
2023-01-20T03:10:21.568Z,3.25
2023-01-20T03:12:52.094Z,1.25
2023-01-20T03:15:23.694Z,2.00
2023-01-20T03:17:52.351Z,12.25
2023-01-20T03:20:19.037Z,12.75
2023-01-20T03:22:45.940Z,1.75
2023-01-20T03:25:14.505Z,2.00
2023-01-20T03:27:41.804Z,2.00
2023-01-20T03:30:13.676Z,2.00
2023-01-20T03:32:43.507Z,15.25
2023-01-20T03:35:13.285Z,5.00
2023-01-20T03:37:40.130Z,1.75
2023-01-20T03:40:08.494Z,3.00
2023-01-20T03:42:43.938Z,7.50
2023-01-20T03:45:16.961Z,9.75
2023-01-20T03:47:51.668Z,4.00
2023-01-20T03:50:34.386Z,2.00
2023-01-20T03:53:10.448Z,3.00
2023-01-20T03:55:43.227Z,2.00
2023-01-20T03:58:13.997Z,10.50
2023-01-20T04:00:45.720Z,0.75
2023-01-20T04:03:17.894Z,1.00
2023-01-20T04:05:48.493Z,2.00
2023-01-20T04:08:17.609Z,3.00
2023-01-20T04:10:48.414Z,1.75
2023-01-20T04:13:15.697Z,2.75
2023-01-20T04:15:44.176Z,2.50
2023-01-20T04:18:13.275Z,2.00
2023-01-20T04:20:40.495Z,1.00
2023-01-20T04:23:13.658Z,1.00
2023-01-20T04:25:40.341Z,1.00
2023-01-20T04:28:06.989Z,0.75
2023-01-20T04:30:33.766Z,2.50
2023-01-20T04:33:00.471Z,1.00
2023-01-20T04:35:27.350Z,1.00
2023-01-20T04:37:54.038Z,2.75
2023-01-20T04:40:22.059Z,2.00
2023-01-20T04:42:49.356Z,2.50
2023-01-20T04:45:17.469Z,2.50
2023-01-20T04:47:44.811Z,2.00
2023-01-20T04:50:12.962Z,4.25
2023-01-20T04:52:39.735Z,2.75
2023-01-20T04:55:07.290Z,1.00
2023-01-20T04:57:35.348Z,1.00
2023-01-20T05:00:02.074Z,3.00
2023-01-20T05:02:28.796Z,2.50
2023-01-20T05:04:55.516Z,2.75
2023-01-20T05:07:22.308Z,1.00
2023-01-20T05:09:48.960Z,1.00
2023-01-20T05:12:15.599Z,1.75
2023-01-20T05:14:43.687Z,2.25
2023-01-20T05:17:10.469Z,2.00
2023-01-20T05:19:37.098Z,2.00
2023-01-20T05:22:03.733Z,1.50
2023-01-20T05:24:30.411Z,2.00
2023-01-20T05:27:00.292Z,2.00
2023-01-20T05:29:27.182Z,1.75
2023-01-20T05:31:55.636Z,1.00
2023-01-20T05:34:22.571Z,1.75
2023-01-20T05:36:51.610Z,2.00
2023-01-20T05:39:18.730Z,1.50
2023-01-20T05:41:45.500Z,3.50
2023-01-20T05:44:12.232Z,2.00
2023-01-20T05:46:39.032Z,2.75
2023-01-20T05:49:07.125Z,3.00
2023-01-20T05:51:33.826Z,2.00
2023-01-20T05:54:00.541Z,2.25
2023-01-20T05:56:27.249Z,2.25
2023-01-20T05:58:54.666Z,4.75
2023-01-20T06:01:21.580Z,5.75
2023-01-20T06:03:48.272Z,5.00
2023-01-20T06:06:16.657Z,19.50
2023-01-20T06:08:43.762Z,7.75
2023-01-20T06:11:10.673Z,6.75
2023-01-20T06:13:37.355Z,13.25
2023-01-20T06:16:07.164Z,6.50
2023-01-20T06:18:34.059Z,8.25
2023-01-20T06:21:00.822Z,11.00
2023-01-20T06:23:28.999Z,25.00
2023-01-20T06:26:00.514Z,8.75
2023-01-20T06:28:27.457Z,9.75
2023-01-20T06:30:59.916Z,5.75
2023-01-20T06:33:26.974Z,7.75
2023-01-20T06:35:54.127Z,10.75
2023-01-20T06:38:20.781Z,8.75
2023-01-20T06:40:48.852Z,6.00
2023-01-20T06:43:15.547Z,11.25
2023-01-20T06:45:42.464Z,13.00
2023-01-20T06:48:09.433Z,10.00
2023-01-20T06:50:36.147Z,8.00
2023-01-20T06:53:02.848Z,11.75
2023-01-20T06:55:29.595Z,19.75
2023-01-20T06:57:57.637Z,29.50
2023-01-20T07:00:24.775Z,21.00
2023-01-20T07:02:51.527Z,23.25
2023-01-20T07:05:18.189Z,16.25
2023-01-20T07:07:44.926Z,14.00
2023-01-20T07:10:12.467Z,20.25
2023-01-20T07:12:39.141Z,13.25
2023-01-20T07:15:08.322Z,17.75
2023-01-20T07:17:34.965Z,16.75
2023-01-20T07:20:01.625Z,9.00
2023-01-20T07:22:28.246Z,4.75
2023-01-20T07:24:54.930Z,2.00
2023-01-20T07:27:21.720Z,2.25
2023-01-20T07:29:48.364Z,1.50
2023-01-20T07:32:16.552Z,2.75
2023-01-20T07:34:43.197Z,4.00
2023-01-20T07:37:09.824Z,3.00
2023-01-20T07:39:36.724Z,6.75
2023-01-20T07:42:03.612Z,5.25
2023-01-20T07:44:30.318Z,5.00
2023-01-20T07:46:57.585Z,5.50
2023-01-20T07:49:25.662Z,3.00
2023-01-20T07:51:52.338Z,4.00
2023-01-20T07:54:18.988Z,5.00
2023-01-20T07:56:45.653Z,2.50
2023-01-20T07:59:12.313Z,5.00
2023-01-20T08:01:39.113Z,5.50
2023-01-20T08:04:05.849Z,3.00
2023-01-20T08:06:33.931Z,12.00
2023-01-20T08:09:01.702Z,14.50
2023-01-20T08:11:28.601Z,14.25
2023-01-20T08:13:55.402Z,26.50
2023-01-20T08:16:22.253Z,26.50
2023-01-20T08:18:49.029Z,34.67
2023-01-20T08:21:19.729Z,31.00
2023-01-20T08:23:47.934Z,39.33
2023-01-20T08:26:15.040Z,35.50
2023-01-20T08:28:41.972Z,35.33
2023-01-20T08:31:10.929Z,38.00
2023-01-20T08:33:38.407Z,34.50
2023-01-20T08:36:07.447Z,32.00
2023-01-20T08:38:34.887Z,13.50
2023-01-20T08:41:06.767Z,28.00
2023-01-20T08:43:33.522Z,28.50
2023-01-20T08:46:00.778Z,31.00
2023-01-20T08:48:27.452Z,38.67
2023-01-20T08:50:54.422Z,39.33
2023-01-20T08:53:21.479Z,37.33
2023-01-20T08:55:55.561Z,21.50
2023-01-20T08:58:25.388Z,15.25
2023-01-20T09:00:52.356Z,11.00
2023-01-20T09:03:19.361Z,5.50
2023-01-20T09:05:46.532Z,5.75
2023-01-20T09:08:13.885Z,7.00
2023-01-20T09:10:40.617Z,6.00
2023-01-20T09:13:07.402Z,5.00
2023-01-20T09:15:35.649Z,7.00
2023-01-20T09:18:02.465Z,8.50
2023-01-20T09:20:29.244Z,33.00
2023-01-20T09:22:56.448Z,27.67
2023-01-20T09:25:23.105Z,3.00
2023-01-20T09:27:49.909Z,6.00
2023-01-20T09:30:17.111Z,7.00
2023-01-20T09:32:45.204Z,5.75
2023-01-20T09:35:11.914Z,22.25
2023-01-20T09:37:38.772Z,7.25
2023-01-20T09:40:09.504Z,3.00
2023-01-20T09:42:52.703Z,6.00
2023-01-20T09:45:27.878Z,11.00
2023-01-20T09:48:05.052Z,11.75
2023-01-20T09:50:45.741Z,13.00
2023-01-20T09:53:27.853Z,12.75
2023-01-20T09:55:57.723Z,7.75
2023-01-20T09:58:34.850Z,8.00
2023-01-20T10:01:10.769Z,7.00
2023-01-20T10:03:46.137Z,7.50
2023-01-20T10:06:20.496Z,71.25
2023-01-20T10:09:05.004Z,42.25
2023-01-20T10:11:37.707Z,22.25
2023-01-20T10:14:13.571Z,40.00
2023-01-20T10:16:45.521Z,99.00
2023-01-20T10:19:21.348Z,31.75
2023-01-20T10:21:53.499Z,68.25
2023-01-20T10:24:28.389Z,37.25
2023-01-20T10:27:01.476Z,19.00
2023-01-20T10:29:34.295Z,5.75
2023-01-20T10:32:02.924Z,7.25
2023-01-20T10:34:41.885Z,6.50
2023-01-20T10:37:11.098Z,6.00
2023-01-20T10:39:46.783Z,7.00
2023-01-20T10:42:15.156Z,5.00
2023-01-20T10:44:42.299Z,4.00
2023-01-20T10:47:17.682Z,4.00
2023-01-20T10:50:14.333Z,4.00
2023-01-20T10:52:52.163Z,6.25
2023-01-20T10:55:29.620Z,3.00
2023-01-20T10:58:01.918Z,5.00
2023-01-20T11:00:31.541Z,5.00
2023-01-20T11:03:00.981Z,5.75
2023-01-20T11:05:31.178Z,4.00
2023-01-20T11:08:00.427Z,3.50
2023-01-20T11:10:29.841Z,6.50
2023-01-20T11:12:59.948Z,6.50
2023-01-20T11:15:29.705Z,3.00
2023-01-20T11:18:29.897Z,4.00
2023-01-20T11:21:01.434Z,7.50
2023-01-20T11:23:36.613Z,6.50
2023-01-20T11:26:06.606Z,6.00
2023-01-20T11:28:43.848Z,4.50
2023-01-20T11:31:11.399Z,3.75
2023-01-20T11:33:38.240Z,6.00
2023-01-20T11:36:16.612Z,6.50
2023-01-20T11:38:45.929Z,4.00
2023-01-20T11:41:19.679Z,6.50
2023-01-20T11:43:47.118Z,4.75
2023-01-20T11:46:22.768Z,26.00
2023-01-20T11:48:50.172Z,5.75
2023-01-20T11:51:22.297Z,3.00
2023-01-20T11:53:49.148Z,65.25
2023-01-20T11:56:20.112Z,101.00
2023-01-20T11:58:52.969Z,23.25
2023-01-20T12:01:23.376Z,0.25
2023-01-20T12:04:21.697Z,1.50
2023-01-20T12:06:55.976Z,3.00
2023-01-20T12:09:30.339Z,2.00
2023-01-20T12:12:02.242Z,4.25
2023-01-20T12:14:34.144Z,5.00
2023-01-20T12:17:12.017Z,4.75
2023-01-20T12:19:50.458Z,3.00
2023-01-20T12:22:24.570Z,4.75
2023-01-20T12:24:58.452Z,0.00
2023-01-20T12:27:28.222Z,4.00
2023-01-20T12:29:59.486Z,5.00
2023-01-20T12:32:26.212Z,4.00
2023-01-20T12:34:52.902Z,5.00
2023-01-20T12:37:28.341Z,4.33
2023-01-20T12:40:20.302Z,5.00
2023-01-20T12:43:03.637Z,5.67
2023-01-20T12:45:43.518Z,5.33
2023-01-20T12:48:25.776Z,4.00
2023-01-20T12:51:03.893Z,5.00
2023-01-20T12:53:48.859Z,5.00
2023-01-20T12:56:25.384Z,4.00
2023-01-20T12:59:01.043Z,4.00
2023-01-20T13:01:58.223Z,3.67
2023-01-20T13:04:57.456Z,4.67
2023-01-20T13:07:46.856Z,3.00
2023-01-20T13:10:26.310Z,5.00
2023-01-20T13:13:00.282Z,4.00
2023-01-20T13:15:30.087Z,2.33
2023-01-20T13:18:12.011Z,5.00
2023-01-20T13:20:40.510Z,1.00
2023-01-20T13:23:11.156Z,1.67
2023-01-20T13:25:41.123Z,4.00
2023-01-20T13:28:16.006Z,2.67
2023-01-20T13:30:45.316Z,1.33
2023-01-20T13:33:17.937Z,1.00
2023-01-20T13:35:47.781Z,2.00
2023-01-20T13:38:23.214Z,3.00
2023-01-20T13:40:56.731Z,2.00
2023-01-20T13:43:50.262Z,2.33
2023-01-20T13:46:48.357Z,3.00
2023-01-20T13:49:47.531Z,1.67
2023-01-20T13:52:14.401Z,2.00
2023-01-20T13:54:47.904Z,4.00
2023-01-20T13:57:46.226Z,3.67
2023-01-20T14:00:18.334Z,5.67
2023-01-20T14:02:49.188Z,6.00
2023-01-20T14:05:24.861Z,5.00
2023-01-20T14:07:51.956Z,3.00
2023-01-20T14:10:19.040Z,3.00
2023-01-20T14:12:47.118Z,1.33
2023-01-20T14:15:34.050Z,2.00
2023-01-20T14:18:01.120Z,2.00
2023-01-20T14:20:28.995Z,2.50
2023-01-20T14:23:14.838Z,1.00
2023-01-20T14:25:41.682Z,1.25
2023-01-20T14:28:19.763Z,2.75
2023-01-20T14:30:47.925Z,3.00
2023-01-20T14:33:16.493Z,3.25
2023-01-20T14:35:43.357Z,3.25
2023-01-20T14:38:17.265Z,4.00
2023-01-20T14:40:44.280Z,3.50
2023-01-20T14:43:18.695Z,3.00
2023-01-20T14:45:49.598Z,2.00
2023-01-20T14:48:32.661Z,2.50
2023-01-20T14:51:00.589Z,3.00
2023-01-20T14:53:27.318Z,3.50
2023-01-20T14:56:01.664Z,4.75
2023-01-20T14:58:29.012Z,2.50
2023-01-20T15:01:00.609Z,2.00
2023-01-20T15:03:29.453Z,1.00
2023-01-20T15:05:59.357Z,2.00
2023-01-20T15:08:27.209Z,4.00
2023-01-20T15:11:26.853Z,3.00
2023-01-20T15:14:10.414Z,3.50
2023-01-20T15:16:50.518Z,2.75
2023-01-20T15:19:28.339Z,4.25
2023-01-20T15:21:56.580Z,3.25
2023-01-20T15:24:24.527Z,2.25
2023-01-20T15:26:53.110Z,5.00
2023-01-20T15:29:21.109Z,4.00
2023-01-20T15:31:49.571Z,3.50
2023-01-20T15:34:16.247Z,5.00
2023-01-20T15:36:44.391Z,4.00
2023-01-20T15:39:11.778Z,5.00
2023-01-20T15:41:38.553Z,33.75
2023-01-20T15:44:05.918Z,44.50
2023-01-20T15:46:33.065Z,27.75
2023-01-20T15:49:01.646Z,32.25
2023-01-20T15:51:28.434Z,6.00
2023-01-20T15:53:55.122Z,3.75
2023-01-20T15:56:25.467Z,6.25
2023-01-20T15:58:52.687Z,3.00
2023-01-20T16:01:20.765Z,4.00
2023-01-20T16:03:47.465Z,6.75
2023-01-20T16:06:17.707Z,8.75
2023-01-20T16:08:46.572Z,8.25
2023-01-20T16:11:13.638Z,6.75
2023-01-20T16:13:40.608Z,7.75
2023-01-20T16:16:12.255Z,6.75
2023-01-20T16:18:39.020Z,6.50
2023-01-20T16:21:06.156Z,5.00
2023-01-20T16:23:34.241Z,7.00
2023-01-20T16:26:00.958Z,7.00
2023-01-20T16:28:27.903Z,7.50
2023-01-20T16:30:54.864Z,5.50
2023-01-20T16:33:22.950Z,9.25
2023-01-20T16:35:51.016Z,13.25
2023-01-20T16:38:19.424Z,11.25
2023-01-20T16:40:50.131Z,11.50
2023-01-20T16:43:17.440Z,24.75
2023-01-20T16:45:44.693Z,24.25
2023-01-20T16:48:11.505Z,20.00
2023-01-20T16:50:38.644Z,24.00
2023-01-20T16:53:05.326Z,20.75
2023-01-20T16:55:32.007Z,19.75
2023-01-20T16:58:00.119Z,14.25
2023-01-20T17:00:26.809Z,22.75
2023-01-20T17:02:53.633Z,19.75
2023-01-20T17:05:21.463Z,20.25
2023-01-20T17:07:48.758Z,18.25
2023-01-20T17:10:15.833Z,15.50
2023-01-20T17:12:42.706Z,13.75
2023-01-20T17:15:12.005Z,11.00
2023-01-20T17:17:38.734Z,11.00
2023-01-20T17:20:06.860Z,6.00
2023-01-20T17:22:33.525Z,11.75
2023-01-20T17:25:00.269Z,18.75
2023-01-20T17:27:26.976Z,24.25
2023-01-20T17:29:53.714Z,31.67
2023-01-20T17:32:21.805Z,30.67
2023-01-20T17:34:48.604Z,30.33
2023-01-20T17:37:15.331Z,38.67
2023-01-20T17:39:41.993Z,44.67
2023-01-20T17:42:08.702Z,43.00
2023-01-20T17:44:35.341Z,60.33
2023-01-20T17:47:02.037Z,88.50
2023-01-20T17:49:30.123Z,103.75
2023-01-20T17:51:56.960Z,92.50
2023-01-20T17:54:23.658Z,67.00
2023-01-20T17:56:50.340Z,42.00
2023-01-20T17:59:17.974Z,31.33
2023-01-20T18:01:44.644Z,13.75
2023-01-20T18:04:11.368Z,36.67
2023-01-20T18:06:39.467Z,31.33
2023-01-20T18:09:07.412Z,35.67
2023-01-20T18:11:36.009Z,29.67
2023-01-20T18:14:03.992Z,32.00
2023-01-20T18:16:33.105Z,34.33
2023-01-20T18:19:00.366Z,33.67
2023-01-20T18:21:28.793Z,34.33
2023-01-20T18:23:57.845Z,36.00
2023-01-20T18:26:26.537Z,32.00
2023-01-20T18:28:54.468Z,33.67
2023-01-20T18:31:23.537Z,35.00
2023-01-20T18:33:51.776Z,31.33
2023-01-20T18:36:20.386Z,35.00
2023-01-20T18:38:49.904Z,35.00
2023-01-20T18:41:18.672Z,37.33
2023-01-20T18:43:45.440Z,43.33
2023-01-20T18:46:12.236Z,41.33
2023-01-20T18:48:39.821Z,52.33
2023-01-20T18:51:07.946Z,45.67
2023-01-20T18:53:34.656Z,48.00
2023-01-20T18:56:02.272Z,42.00
2023-01-20T18:58:30.378Z,32.00
2023-01-20T19:01:03.294Z,32.33
2023-01-20T19:03:30.069Z,32.67
2023-01-20T19:06:03.083Z,33.00
2023-01-20T19:08:29.763Z,40.33
2023-01-20T19:11:00.346Z,43.67
2023-01-20T19:13:27.096Z,37.00
2023-01-20T19:15:55.723Z,39.33
2023-01-20T19:18:22.832Z,42.33
2023-01-20T19:20:49.601Z,35.00
2023-01-20T19:23:17.019Z,58.25
2023-01-20T19:25:43.757Z,53.25
2023-01-20T19:28:10.731Z,80.50
2023-01-20T19:30:37.772Z,97.75
2023-01-20T19:33:05.918Z,123.25
2023-01-20T19:35:33.805Z,101.75
2023-01-20T19:38:00.553Z,98.75
2023-01-20T19:40:27.251Z,126.00
2023-01-20T19:42:54.114Z,128.00
2023-01-20T19:45:21.037Z,105.25
2023-01-20T19:47:47.751Z,119.75
2023-01-20T19:50:16.565Z,109.25
2023-01-20T19:52:43.344Z,107.25
2023-01-20T19:55:10.017Z,116.00
2023-01-20T19:57:37.003Z,78.00
2023-01-20T20:00:04.387Z,73.75
2023-01-20T20:02:31.033Z,101.75
2023-01-20T20:04:57.744Z,78.50
2023-01-20T20:07:25.857Z,68.75
2023-01-20T20:09:52.584Z,67.25
2023-01-20T20:12:19.315Z,57.50
2023-01-20T20:14:46.137Z,75.25
2023-01-20T20:17:12.780Z,72.25
2023-01-20T20:19:39.583Z,70.50
2023-01-20T20:22:06.280Z,74.00
2023-01-20T20:24:34.427Z,71.25
2023-01-20T20:27:01.081Z,69.75
2023-01-20T20:29:28.034Z,80.50
2023-01-20T20:31:54.777Z,75.00
2023-01-20T20:34:21.631Z,70.25
2023-01-20T20:36:48.405Z,75.50
2023-01-20T20:39:17.548Z,39.00
2023-01-20T20:41:46.042Z,41.67
2023-01-20T20:44:12.864Z,44.25
2023-01-20T20:46:39.707Z,42.00
2023-01-20T20:49:06.489Z,38.75
2023-01-20T20:51:34.288Z,30.25
2023-01-20T20:54:02.727Z,36.50
2023-01-20T20:56:30.620Z,39.75
2023-01-20T20:59:02.473Z,36.75
2023-01-20T21:01:31.257Z,54.75
2023-01-20T21:03:58.384Z,39.75
2023-01-20T21:06:25.389Z,45.75
2023-01-20T21:08:52.507Z,47.00
2023-01-20T21:11:19.267Z,48.00
2023-01-20T21:13:46.010Z,57.25
2023-01-20T21:16:16.761Z,63.00
2023-01-20T21:18:43.506Z,65.00
2023-01-20T21:21:12.846Z,71.00
2023-01-20T21:23:40.059Z,72.75
2023-01-20T21:26:10.066Z,70.25
2023-01-20T21:28:36.851Z,65.75
2023-01-20T21:31:06.880Z,60.50
2023-01-20T21:33:36.825Z,61.25
2023-01-20T21:36:06.265Z,58.25
2023-01-20T21:38:32.996Z,83.00
2023-01-20T21:41:04.140Z,71.00
2023-01-20T21:43:31.512Z,68.00
2023-01-20T21:45:58.286Z,48.75
2023-01-20T21:48:25.050Z,72.00
2023-01-20T21:50:53.194Z,63.25
2023-01-20T21:53:19.897Z,63.75
2023-01-20T21:55:46.570Z,97.00
2023-01-20T21:58:13.379Z,72.75
2023-01-20T22:00:40.209Z,57.25
2023-01-20T22:03:06.930Z,56.50
2023-01-20T22:05:33.635Z,72.25
2023-01-20T22:08:01.741Z,78.50
2023-01-20T22:10:28.410Z,59.50
2023-01-20T22:12:55.250Z,51.25
2023-01-20T22:15:21.967Z,74.25
2023-01-20T22:17:48.798Z,78.50
2023-01-20T22:20:16.216Z,61.50
2023-01-20T22:22:43.088Z,52.00
2023-01-20T22:25:11.259Z,43.25
2023-01-20T22:27:37.943Z,46.00
2023-01-20T22:30:05.536Z,40.33
2023-01-20T22:32:32.271Z,39.00
2023-01-20T22:34:59.004Z,41.33
2023-01-20T22:37:25.697Z,39.00
2023-01-20T22:39:52.390Z,43.25
2023-01-20T22:42:20.632Z,42.00
2023-01-20T22:44:47.309Z,46.33
2023-01-20T22:47:13.988Z,48.00
2023-01-20T22:49:40.668Z,45.00
2023-01-20T22:52:07.370Z,44.00
2023-01-20T22:54:34.074Z,43.00
2023-01-20T22:57:00.811Z,63.25
2023-01-20T22:59:29.060Z,60.25
2023-01-20T23:01:55.856Z,49.75
2023-01-20T23:04:23.290Z,46.25
2023-01-20T23:06:49.997Z,44.50
2023-01-20T23:09:16.656Z,43.00
2023-01-20T23:11:43.383Z,47.50
2023-01-20T23:14:10.243Z,47.50
2023-01-20T23:16:38.590Z,46.00
2023-01-20T23:19:05.897Z,44.50
2023-01-20T23:21:32.693Z,49.50
2023-01-20T23:23:59.463Z,47.25
2023-01-20T23:26:28.160Z,47.50
2023-01-20T23:28:56.050Z,52.00
2023-01-20T23:31:24.281Z,45.50
2023-01-20T23:33:53.959Z,44.25
2023-01-20T23:36:21.829Z,47.75
2023-01-20T23:38:48.731Z,52.50
2023-01-20T23:41:16.242Z,45.75
2023-01-20T23:43:43.264Z,44.50
2023-01-20T23:46:10.483Z,49.75
2023-01-20T23:48:38.104Z,41.50
2023-01-20T23:51:07.040Z,52.25
2023-01-20T23:53:37.587Z,45.00
2023-01-20T23:56:07.051Z,48.50
2023-01-20T23:58:33.798Z,47.75
